sensor_id;sensor_type;location;lat;lon;timestamp;temperature;humidity
27848;DHT22;15212;48.830;8.730;2023-07-28T00:00:17;16.40;99.90
27848;DHT22;15212;48.830;8.730;2023-07-28T00:02:46;16.40;99.90
27848;DHT22;15212;48.830;8.730;2023-07-28T00:05:14;16.40;99.90
27848;DHT22;15212;48.830;8.730;2023-07-28T00:07:43;16.30;99.90
27848;DHT22;15212;48.830;8.730;2023-07-28T00:10:11;16.30;99.90
27848;DHT22;15212;48.830;8.730;2023-07-28T00:12:39;16.30;99.90
27848;DHT22;15212;48.830;8.730;2023-07-28T00:15:08;16.30;99.90
27848;DHT22;15212;48.830;8.730;2023-07-28T00:17:36;16.40;99.90
27848;DHT22;15212;48.830;8.730;2023-07-28T00:20:06;16.40;99.90
27848;DHT22;15212;48.830;8.730;2023-07-28T00:22:35;16.50;99.90
27848;DHT22;15212;48.830;8.730;2023-07-28T00:25:04;16.50;99.90
27848;DHT22;15212;48.830;8.730;2023-07-28T00:27:32;16.60;99.90
27848;DHT22;15212;48.830;8.730;2023-07-28T00:30:01;16.70;99.90
27848;DHT22;15212;48.830;8.730;2023-07-28T00:32:29;16.70;99.90
27848;DHT22;15212;48.830;8.730;2023-07-28T00:34:58;16.70;99.90
27848;DHT22;15212;48.830;8.730;2023-07-28T00:37:26;16.80;99.90
27848;DHT22;15212;48.830;8.730;2023-07-28T00:39:54;16.80;99.90
27848;DHT22;15212;48.830;8.730;2023-07-28T00:42:23;16.90;99.90
27848;DHT22;15212;48.830;8.730;2023-07-28T00:44:51;16.80;99.90
27848;DHT22;15212;48.830;8.730;2023-07-28T00:47:20;16.80;99.90
27848;DHT22;15212;48.830;8.730;2023-07-28T00:49:48;16.80;99.90
27848;DHT22;15212;48.830;8.730;2023-07-28T00:52:17;16.80;99.90
27848;DHT22;15212;48.830;8.730;2023-07-28T00:54:45;16.80;99.90
27848;DHT22;15212;48.830;8.730;2023-07-28T00:57:13;16.80;99.90
27848;DHT22;15212;48.830;8.730;2023-07-28T00:59:45;16.80;99.90
27848;DHT22;15212;48.830;8.730;2023-07-28T01:02:13;16.70;99.90
27848;DHT22;15212;48.830;8.730;2023-07-28T01:04:42;16.70;99.90
27848;DHT22;15212;48.830;8.730;2023-07-28T01:10:10;16.70;99.90
27848;DHT22;15212;48.830;8.730;2023-07-28T01:12:43;16.60;99.90
27848;DHT22;15212;48.830;8.730;2023-07-28T01:15:11;16.60;99.90
27848;DHT22;15212;48.830;8.730;2023-07-28T01:17:42;16.50;99.90
27848;DHT22;15212;48.830;8.730;2023-07-28T01:20:11;16.50;99.90
27848;DHT22;15212;48.830;8.730;2023-07-28T01:25:47;16.50;99.90
27848;DHT22;15212;48.830;8.730;2023-07-28T01:28:24;16.40;99.90
27848;DHT22;15212;48.830;8.730;2023-07-28T01:30:52;16.40;99.90
27848;DHT22;15212;48.830;8.730;2023-07-28T01:33:21;16.40;99.90
27848;DHT22;15212;48.830;8.730;2023-07-28T01:35:49;16.40;99.90
27848;DHT22;15212;48.830;8.730;2023-07-28T01:38:17;16.40;99.90
27848;DHT22;15212;48.830;8.730;2023-07-28T01:40:46;16.40;99.90
27848;DHT22;15212;48.830;8.730;2023-07-28T01:43:14;16.40;99.90
27848;DHT22;15212;48.830;8.730;2023-07-28T01:45:42;16.40;99.90
27848;DHT22;15212;48.830;8.730;2023-07-28T01:48:11;16.40;99.90
27848;DHT22;15212;48.830;8.730;2023-07-28T01:50:39;16.40;99.90
27848;DHT22;15212;48.830;8.730;2023-07-28T01:53:08;16.40;99.90
27848;DHT22;15212;48.830;8.730;2023-07-28T01:55:36;16.30;99.90
27848;DHT22;15212;48.830;8.730;2023-07-28T01:58:04;16.40;99.90
27848;DHT22;15212;48.830;8.730;2023-07-28T02:00:33;16.40;99.90
27848;DHT22;15212;48.830;8.730;2023-07-28T02:03:01;16.40;99.90
27848;DHT22;15212;48.830;8.730;2023-07-28T02:05:30;16.40;99.90
27848;DHT22;15212;48.830;8.730;2023-07-28T02:07:59;16.30;99.90
27848;DHT22;15212;48.830;8.730;2023-07-28T02:10:29;16.30;99.90
27848;DHT22;15212;48.830;8.730;2023-07-28T02:12:57;16.20;99.90
27848;DHT22;15212;48.830;8.730;2023-07-28T02:15:26;16.20;99.90
27848;DHT22;15212;48.830;8.730;2023-07-28T02:17:54;16.20;99.90
27848;DHT22;15212;48.830;8.730;2023-07-28T02:20:22;16.10;99.90
27848;DHT22;15212;48.830;8.730;2023-07-28T02:22:51;16.00;99.90
27848;DHT22;15212;48.830;8.730;2023-07-28T02:25:19;15.90;99.90
27848;DHT22;15212;48.830;8.730;2023-07-28T02:27:47;15.90;99.90
27848;DHT22;15212;48.830;8.730;2023-07-28T02:30:16;15.80;99.90
27848;DHT22;15212;48.830;8.730;2023-07-28T02:32:44;15.80;99.90
27848;DHT22;15212;48.830;8.730;2023-07-28T02:35:13;15.80;99.90
27848;DHT22;15212;48.830;8.730;2023-07-28T02:37:41;15.80;99.90
27848;DHT22;15212;48.830;8.730;2023-07-28T02:40:10;15.80;99.90
27848;DHT22;15212;48.830;8.730;2023-07-28T02:42:39;15.80;99.90
27848;DHT22;15212;48.830;8.730;2023-07-28T02:45:08;15.80;99.90
27848;DHT22;15212;48.830;8.730;2023-07-28T02:47:36;15.80;99.90
27848;DHT22;15212;48.830;8.730;2023-07-28T02:50:05;15.80;99.90
27848;DHT22;15212;48.830;8.730;2023-07-28T02:52:34;15.90;99.90
27848;DHT22;15212;48.830;8.730;2023-07-28T02:55:02;15.90;99.90
27848;DHT22;15212;48.830;8.730;2023-07-28T02:57:30;15.80;99.90
27848;DHT22;15212;48.830;8.730;2023-07-28T02:59:59;15.80;99.90
27848;DHT22;15212;48.830;8.730;2023-07-28T03:02:27;15.80;99.90
27848;DHT22;15212;48.830;8.730;2023-07-28T03:04:56;15.80;99.90
27848;DHT22;15212;48.830;8.730;2023-07-28T03:07:24;15.80;99.90
27848;DHT22;15212;48.830;8.730;2023-07-28T03:09:52;15.70;99.90
27848;DHT22;15212;48.830;8.730;2023-07-28T03:12:21;15.80;99.90
27848;DHT22;15212;48.830;8.730;2023-07-28T03:14:49;15.90;99.90
27848;DHT22;15212;48.830;8.730;2023-07-28T03:17:18;15.90;99.90
27848;DHT22;15212;48.830;8.730;2023-07-28T03:19:46;15.90;99.90
27848;DHT22;15212;48.830;8.730;2023-07-28T03:22:14;16.00;99.90
27848;DHT22;15212;48.830;8.730;2023-07-28T03:24:43;16.10;99.90
27848;DHT22;15212;48.830;8.730;2023-07-28T03:27:12;16.10;99.90
27848;DHT22;15212;48.830;8.730;2023-07-28T03:29:41;16.20;99.90
27848;DHT22;15212;48.830;8.730;2023-07-28T03:32:10;16.20;99.90
27848;DHT22;15212;48.830;8.730;2023-07-28T03:34:39;16.20;99.90
27848;DHT22;15212;48.830;8.730;2023-07-28T03:37:08;16.20;99.90
27848;DHT22;15212;48.830;8.730;2023-07-28T03:39:36;16.20;99.90
27848;DHT22;15212;48.830;8.730;2023-07-28T03:42:05;16.20;99.90
27848;DHT22;15212;48.830;8.730;2023-07-28T03:44:33;16.30;99.90
27848;DHT22;15212;48.830;8.730;2023-07-28T03:47:04;16.30;99.90
27848;DHT22;15212;48.830;8.730;2023-07-28T03:49:33;16.30;99.90
27848;DHT22;15212;48.830;8.730;2023-07-28T03:52:01;16.30;99.90
27848;DHT22;15212;48.830;8.730;2023-07-28T03:54:30;16.40;99.90
27848;DHT22;15212;48.830;8.730;2023-07-28T03:56:58;16.40;99.90
27848;DHT22;15212;48.830;8.730;2023-07-28T03:59:27;16.40;99.90
27848;DHT22;15212;48.830;8.730;2023-07-28T04:01:55;16.50;99.90
27848;DHT22;15212;48.830;8.730;2023-07-28T04:04:25;16.50;99.90
27848;DHT22;15212;48.830;8.730;2023-07-28T04:06:53;16.50;99.90
27848;DHT22;15212;48.830;8.730;2023-07-28T04:09:21;16.50;99.90
27848;DHT22;15212;48.830;8.730;2023-07-28T04:11:50;16.50;99.90
27848;DHT22;15212;48.830;8.730;2023-07-28T04:14:18;16.50;99.90
27848;DHT22;15212;48.830;8.730;2023-07-28T04:16:47;16.50;99.90
27848;DHT22;15212;48.830;8.730;2023-07-28T04:19:15;16.50;99.90
27848;DHT22;15212;48.830;8.730;2023-07-28T04:21:43;16.50;99.90
27848;DHT22;15212;48.830;8.730;2023-07-28T04:24:12;16.50;99.90
27848;DHT22;15212;48.830;8.730;2023-07-28T04:26:40;16.40;99.90
27848;DHT22;15212;48.830;8.730;2023-07-28T04:29:09;16.40;99.90
27848;DHT22;15212;48.830;8.730;2023-07-28T04:31:38;16.40;99.90
27848;DHT22;15212;48.830;8.730;2023-07-28T04:34:06;16.40;99.90
27848;DHT22;15212;48.830;8.730;2023-07-28T04:36:35;16.30;99.90
27848;DHT22;15212;48.830;8.730;2023-07-28T04:39:03;16.30;99.90
27848;DHT22;15212;48.830;8.730;2023-07-28T04:41:32;16.40;99.90
27848;DHT22;15212;48.830;8.730;2023-07-28T04:44:00;16.40;99.90
27848;DHT22;15212;48.830;8.730;2023-07-28T04:46:29;16.40;99.90
27848;DHT22;15212;48.830;8.730;2023-07-28T04:48:57;16.40;99.90
27848;DHT22;15212;48.830;8.730;2023-07-28T04:51:26;16.40;99.90
27848;DHT22;15212;48.830;8.730;2023-07-28T04:53:54;16.50;99.90
27848;DHT22;15212;48.830;8.730;2023-07-28T04:56:22;16.50;99.90
27848;DHT22;15212;48.830;8.730;2023-07-28T04:58:51;16.50;99.90
27848;DHT22;15212;48.830;8.730;2023-07-28T05:01:19;16.50;99.90
27848;DHT22;15212;48.830;8.730;2023-07-28T05:03:48;16.50;99.90
27848;DHT22;15212;48.830;8.730;2023-07-28T05:06:16;16.50;99.90
27848;DHT22;15212;48.830;8.730;2023-07-28T05:08:44;16.50;99.90
27848;DHT22;15212;48.830;8.730;2023-07-28T05:11:13;16.50;99.90
27848;DHT22;15212;48.830;8.730;2023-07-28T05:13:41;16.50;99.90
27848;DHT22;15212;48.830;8.730;2023-07-28T05:16:10;16.60;99.90
27848;DHT22;15212;48.830;8.730;2023-07-28T05:18:39;16.60;99.90
27848;DHT22;15212;48.830;8.730;2023-07-28T05:21:09;16.60;99.90
27848;DHT22;15212;48.830;8.730;2023-07-28T05:23:37;16.60;99.90
27848;DHT22;15212;48.830;8.730;2023-07-28T05:26:06;16.60;99.90
27848;DHT22;15212;48.830;8.730;2023-07-28T05:28:35;16.60;99.90
27848;DHT22;15212;48.830;8.730;2023-07-28T05:31:05;16.60;99.90
27848;DHT22;15212;48.830;8.730;2023-07-28T05:33:34;16.70;99.90
27848;DHT22;15212;48.830;8.730;2023-07-28T05:36:04;16.60;99.90
27848;DHT22;15212;48.830;8.730;2023-07-28T05:38:33;16.60;99.90
27848;DHT22;15212;48.830;8.730;2023-07-28T05:41:02;16.60;99.90
27848;DHT22;15212;48.830;8.730;2023-07-28T05:43:32;16.60;99.90
27848;DHT22;15212;48.830;8.730;2023-07-28T05:46:00;16.70;99.90
27848;DHT22;15212;48.830;8.730;2023-07-28T05:48:29;16.60;99.90
27848;DHT22;15212;48.830;8.730;2023-07-28T05:50:57;16.60;99.90
27848;DHT22;15212;48.830;8.730;2023-07-28T05:53:26;16.60;99.90
27848;DHT22;15212;48.830;8.730;2023-07-28T05:55:54;16.70;99.90
27848;DHT22;15212;48.830;8.730;2023-07-28T05:58:23;16.60;99.90
27848;DHT22;15212;48.830;8.730;2023-07-28T06:00:51;16.70;99.90
27848;DHT22;15212;48.830;8.730;2023-07-28T06:03:20;16.60;99.90
27848;DHT22;15212;48.830;8.730;2023-07-28T06:05:48;16.70;99.90
27848;DHT22;15212;48.830;8.730;2023-07-28T06:08:17;16.70;99.90
27848;DHT22;15212;48.830;8.730;2023-07-28T06:10:45;16.70;99.90
27848;DHT22;15212;48.830;8.730;2023-07-28T06:13:14;16.70;99.90
27848;DHT22;15212;48.830;8.730;2023-07-28T06:15:42;16.70;99.90
27848;DHT22;15212;48.830;8.730;2023-07-28T06:18:11;16.70;99.90
27848;DHT22;15212;48.830;8.730;2023-07-28T06:20:43;16.80;99.90
27848;DHT22;15212;48.830;8.730;2023-07-28T06:23:12;16.80;99.90
27848;DHT22;15212;48.830;8.730;2023-07-28T06:25:40;16.80;99.90
27848;DHT22;15212;48.830;8.730;2023-07-28T06:28:12;16.80;99.90
27848;DHT22;15212;48.830;8.730;2023-07-28T06:30:41;16.90;99.90
27848;DHT22;15212;48.830;8.730;2023-07-28T06:33:09;17.00;99.90
27848;DHT22;15212;48.830;8.730;2023-07-28T06:35:38;17.10;99.90
27848;DHT22;15212;48.830;8.730;2023-07-28T06:38:06;17.20;99.90
27848;DHT22;15212;48.830;8.730;2023-07-28T06:40:35;17.20;99.90
27848;DHT22;15212;48.830;8.730;2023-07-28T06:43:04;17.30;99.90
27848;DHT22;15212;48.830;8.730;2023-07-28T06:45:34;17.30;99.90
27848;DHT22;15212;48.830;8.730;2023-07-28T06:48:02;17.30;99.90
27848;DHT22;15212;48.830;8.730;2023-07-28T06:50:31;17.40;99.90
27848;DHT22;15212;48.830;8.730;2023-07-28T06:52:59;17.40;99.90
27848;DHT22;15212;48.830;8.730;2023-07-28T06:55:28;17.40;99.90
27848;DHT22;15212;48.830;8.730;2023-07-28T06:57:56;17.50;99.90
27848;DHT22;15212;48.830;8.730;2023-07-28T07:00:24;17.50;99.90
27848;DHT22;15212;48.830;8.730;2023-07-28T07:02:53;17.50;99.90
27848;DHT22;15212;48.830;8.730;2023-07-28T07:05:21;17.50;99.90
27848;DHT22;15212;48.830;8.730;2023-07-28T07:07:50;17.50;99.90
27848;DHT22;15212;48.830;8.730;2023-07-28T07:10:19;17.60;99.90
27848;DHT22;15212;48.830;8.730;2023-07-28T07:12:48;17.60;99.90
27848;DHT22;15212;48.830;8.730;2023-07-28T07:15:17;17.70;99.90
27848;DHT22;15212;48.830;8.730;2023-07-28T07:17:45;17.70;99.90
27848;DHT22;15212;48.830;8.730;2023-07-28T07:20:14;17.80;99.90
27848;DHT22;15212;48.830;8.730;2023-07-28T07:22:42;17.90;99.90
27848;DHT22;15212;48.830;8.730;2023-07-28T07:25:10;18.10;99.90
27848;DHT22;15212;48.830;8.730;2023-07-28T07:27:39;18.10;99.90
27848;DHT22;15212;48.830;8.730;2023-07-28T07:30:08;18.20;99.90
27848;DHT22;15212;48.830;8.730;2023-07-28T07:32:36;18.20;99.90
27848;DHT22;15212;48.830;8.730;2023-07-28T07:35:06;18.20;99.90
27848;DHT22;15212;48.830;8.730;2023-07-28T07:37:35;18.20;99.90
27848;DHT22;15212;48.830;8.730;2023-07-28T07:40:03;18.20;99.90
27848;DHT22;15212;48.830;8.730;2023-07-28T07:42:47;18.20;99.90
27848;DHT22;15212;48.830;8.730;2023-07-28T07:45:16;18.20;99.90
27848;DHT22;15212;48.830;8.730;2023-07-28T07:47:44;18.30;99.90
27848;DHT22;15212;48.830;8.730;2023-07-28T07:50:13;18.30;99.90
27848;DHT22;15212;48.830;8.730;2023-07-28T07:52:41;18.40;99.90
27848;DHT22;15212;48.830;8.730;2023-07-28T07:55:10;18.50;99.90
27848;DHT22;15212;48.830;8.730;2023-07-28T07:57:39;18.60;99.90
27848;DHT22;15212;48.830;8.730;2023-07-28T08:00:08;18.80;99.90
27848;DHT22;15212;48.830;8.730;2023-07-28T08:02:38;18.90;99.90
27848;DHT22;15212;48.830;8.730;2023-07-28T08:05:06;18.90;99.90
27848;DHT22;15212;48.830;8.730;2023-07-28T08:07:36;18.90;99.90
27848;DHT22;15212;48.830;8.730;2023-07-28T08:10:05;18.90;99.90
27848;DHT22;15212;48.830;8.730;2023-07-28T08:12:33;18.90;99.90
27848;DHT22;15212;48.830;8.730;2023-07-28T08:15:02;18.80;99.90
27848;DHT22;15212;48.830;8.730;2023-07-28T08:17:30;18.80;99.90
27848;DHT22;15212;48.830;8.730;2023-07-28T08:19:58;18.90;99.90
27848;DHT22;15212;48.830;8.730;2023-07-28T08:22:27;18.90;99.90
27848;DHT22;15212;48.830;8.730;2023-07-28T08:24:55;18.90;99.90
27848;DHT22;15212;48.830;8.730;2023-07-28T08:27:24;19.20;99.90
27848;DHT22;15212;48.830;8.730;2023-07-28T08:29:52;19.50;99.90
27848;DHT22;15212;48.830;8.730;2023-07-28T08:32:21;19.50;99.90
27848;DHT22;15212;48.830;8.730;2023-07-28T08:34:49;19.60;99.90
27848;DHT22;15212;48.830;8.730;2023-07-28T08:37:17;19.70;99.90
27848;DHT22;15212;48.830;8.730;2023-07-28T08:39:46;19.80;99.90
27848;DHT22;15212;48.830;8.730;2023-07-28T08:42:14;20.00;99.90
27848;DHT22;15212;48.830;8.730;2023-07-28T08:44:43;20.30;99.90
27848;DHT22;15212;48.830;8.730;2023-07-28T08:47:13;20.30;99.90
27848;DHT22;15212;48.830;8.730;2023-07-28T08:49:42;20.40;99.90
27848;DHT22;15212;48.830;8.730;2023-07-28T08:52:10;20.30;99.90
27848;DHT22;15212;48.830;8.730;2023-07-28T08:54:39;20.10;99.90
27848;DHT22;15212;48.830;8.730;2023-07-28T08:57:09;19.90;99.90
27848;DHT22;15212;48.830;8.730;2023-07-28T08:59:38;19.90;99.90
27848;DHT22;15212;48.830;8.730;2023-07-28T09:02:09;19.90;99.90
27848;DHT22;15212;48.830;8.730;2023-07-28T09:04:38;19.90;99.90
27848;DHT22;15212;48.830;8.730;2023-07-28T09:07:06;19.90;99.90
27848;DHT22;15212;48.830;8.730;2023-07-28T09:09:35;20.00;99.90
27848;DHT22;15212;48.830;8.730;2023-07-28T09:12:08;20.10;99.90
27848;DHT22;15212;48.830;8.730;2023-07-28T09:14:38;20.30;99.90
27848;DHT22;15212;48.830;8.730;2023-07-28T09:17:13;20.50;99.90
27848;DHT22;15212;48.830;8.730;2023-07-28T09:19:53;20.60;99.90
27848;DHT22;15212;48.830;8.730;2023-07-28T09:22:22;20.60;99.90
27848;DHT22;15212;48.830;8.730;2023-07-28T09:24:51;20.60;99.90
27848;DHT22;15212;48.830;8.730;2023-07-28T09:27:22;20.50;99.90
27848;DHT22;15212;48.830;8.730;2023-07-28T09:29:55;20.50;99.90
27848;DHT22;15212;48.830;8.730;2023-07-28T09:32:31;20.40;99.90
27848;DHT22;15212;48.830;8.730;2023-07-28T09:35:09;20.40;99.90
27848;DHT22;15212;48.830;8.730;2023-07-28T09:37:40;20.40;99.90
27848;DHT22;15212;48.830;8.730;2023-07-28T09:40:12;20.50;99.90
27848;DHT22;15212;48.830;8.730;2023-07-28T09:42:43;20.50;99.90
27848;DHT22;15212;48.830;8.730;2023-07-28T09:45:15;20.40;99.90
27848;DHT22;15212;48.830;8.730;2023-07-28T09:47:46;20.30;99.90
27848;DHT22;15212;48.830;8.730;2023-07-28T09:50:17;20.30;99.90
27848;DHT22;15212;48.830;8.730;2023-07-28T09:52:47;20.40;99.90
27848;DHT22;15212;48.830;8.730;2023-07-28T09:55:17;20.50;99.90
27848;DHT22;15212;48.830;8.730;2023-07-28T09:57:52;20.50;99.90
27848;DHT22;15212;48.830;8.730;2023-07-28T10:00:23;20.60;99.90
27848;DHT22;15212;48.830;8.730;2023-07-28T10:02:53;20.60;99.90
27848;DHT22;15212;48.830;8.730;2023-07-28T10:05:21;20.90;99.90
27848;DHT22;15212;48.830;8.730;2023-07-28T10:07:50;21.20;99.90
27848;DHT22;15212;48.830;8.730;2023-07-28T10:10:19;21.30;99.90
27848;DHT22;15212;48.830;8.730;2023-07-28T10:12:52;21.40;99.90
27848;DHT22;15212;48.830;8.730;2023-07-28T10:15:30;21.50;99.90
27848;DHT22;15212;48.830;8.730;2023-07-28T10:18:00;21.40;99.90
27848;DHT22;15212;48.830;8.730;2023-07-28T10:20:33;21.30;99.90
27848;DHT22;15212;48.830;8.730;2023-07-28T10:23:16;21.10;99.90
27848;DHT22;15212;48.830;8.730;2023-07-28T10:25:46;21.00;99.90
27848;DHT22;15212;48.830;8.730;2023-07-28T10:28:33;20.80;99.90
27848;DHT22;15212;48.830;8.730;2023-07-28T10:31:11;20.70;99.90
27848;DHT22;15212;48.830;8.730;2023-07-28T10:33:46;20.80;99.90
27848;DHT22;15212;48.830;8.730;2023-07-28T10:41:38;21.20;99.90
27848;DHT22;15212;48.830;8.730;2023-07-28T10:44:09;21.30;99.90
27848;DHT22;15212;48.830;8.730;2023-07-28T10:46:37;21.40;99.90
27848;DHT22;15212;48.830;8.730;2023-07-28T10:49:06;21.60;99.90
27848;DHT22;15212;48.830;8.730;2023-07-28T10:51:36;21.60;99.90
27848;DHT22;15212;48.830;8.730;2023-07-28T10:54:04;21.60;99.90
27848;DHT22;15212;48.830;8.730;2023-07-28T10:56:33;21.70;99.90
27848;DHT22;15212;48.830;8.730;2023-07-28T10:59:03;21.70;99.90
27848;DHT22;15212;48.830;8.730;2023-07-28T11:01:33;21.50;99.90
27848;DHT22;15212;48.830;8.730;2023-07-28T11:06:50;21.50;99.90
27848;DHT22;15212;48.830;8.730;2023-07-28T11:09:22;21.40;99.90
27848;DHT22;15212;48.830;8.730;2023-07-28T11:11:51;21.40;99.90
27848;DHT22;15212;48.830;8.730;2023-07-28T11:14:20;21.40;99.90
27848;DHT22;15212;48.830;8.730;2023-07-28T11:16:49;21.40;99.90
27848;DHT22;15212;48.830;8.730;2023-07-28T11:19:19;21.50;99.90
27848;DHT22;15212;48.830;8.730;2023-07-28T11:21:49;21.70;99.90
27848;DHT22;15212;48.830;8.730;2023-07-28T11:24:21;21.80;99.90
27848;DHT22;15212;48.830;8.730;2023-07-28T11:26:50;21.90;99.90
27848;DHT22;15212;48.830;8.730;2023-07-28T11:29:19;21.90;99.90
27848;DHT22;15212;48.830;8.730;2023-07-28T11:31:48;21.90;99.90
27848;DHT22;15212;48.830;8.730;2023-07-28T11:34:18;21.90;99.90
27848;DHT22;15212;48.830;8.730;2023-07-28T11:36:47;21.70;99.90
27848;DHT22;15212;48.830;8.730;2023-07-28T11:39:16;21.40;99.90
27848;DHT22;15212;48.830;8.730;2023-07-28T11:41:46;21.30;99.90
27848;DHT22;15212;48.830;8.730;2023-07-28T11:44:15;21.10;99.90
27848;DHT22;15212;48.830;8.730;2023-07-28T11:46:44;21.10;99.90
27848;DHT22;15212;48.830;8.730;2023-07-28T11:49:20;21.00;99.90
27848;DHT22;15212;48.830;8.730;2023-07-28T11:51:51;21.00;99.90
27848;DHT22;15212;48.830;8.730;2023-07-28T11:54:22;20.80;99.90
27848;DHT22;15212;48.830;8.730;2023-07-28T11:56:55;20.60;99.90
27848;DHT22;15212;48.830;8.730;2023-07-28T11:59:24;20.40;99.90
27848;DHT22;15212;48.830;8.730;2023-07-28T12:02:04;20.30;99.90
27848;DHT22;15212;48.830;8.730;2023-07-28T12:04:35;20.30;99.90
27848;DHT22;15212;48.830;8.730;2023-07-28T12:07:10;20.20;99.90
27848;DHT22;15212;48.830;8.730;2023-07-28T12:12:23;20.00;99.90
27848;DHT22;15212;48.830;8.730;2023-07-28T12:14:56;19.90;99.90
27848;DHT22;15212;48.830;8.730;2023-07-28T12:17:29;19.80;99.90
27848;DHT22;15212;48.830;8.730;2023-07-28T12:20:03;19.70;99.90
27848;DHT22;15212;48.830;8.730;2023-07-28T12:22:36;19.60;99.90
27848;DHT22;15212;48.830;8.730;2023-07-28T12:25:05;19.60;99.90
27848;DHT22;15212;48.830;8.730;2023-07-28T12:27:34;19.70;99.90
27848;DHT22;15212;48.830;8.730;2023-07-28T12:30:03;19.80;99.90
27848;DHT22;15212;48.830;8.730;2023-07-28T12:32:34;19.80;99.90
27848;DHT22;15212;48.830;8.730;2023-07-28T12:35:02;19.90;99.90
27848;DHT22;15212;48.830;8.730;2023-07-28T12:37:31;20.00;99.90
27848;DHT22;15212;48.830;8.730;2023-07-28T12:39:59;20.00;99.90
27848;DHT22;15212;48.830;8.730;2023-07-28T12:42:28;19.90;99.90
27848;DHT22;15212;48.830;8.730;2023-07-28T12:44:57;19.90;99.90
27848;DHT22;15212;48.830;8.730;2023-07-28T12:47:26;19.90;99.90
27848;DHT22;15212;48.830;8.730;2023-07-28T12:49:54;19.90;99.90
27848;DHT22;15212;48.830;8.730;2023-07-28T12:52:23;19.90;99.90
27848;DHT22;15212;48.830;8.730;2023-07-28T12:54:51;19.90;99.90
27848;DHT22;15212;48.830;8.730;2023-07-28T12:57:19;19.80;99.90
27848;DHT22;15212;48.830;8.730;2023-07-28T12:59:48;19.80;99.90
27848;DHT22;15212;48.830;8.730;2023-07-28T13:02:17;19.80;99.90
27848;DHT22;15212;48.830;8.730;2023-07-28T13:04:45;19.80;99.90
27848;DHT22;15212;48.830;8.730;2023-07-28T13:07:14;19.70;99.90
27848;DHT22;15212;48.830;8.730;2023-07-28T13:09:42;19.70;99.90
27848;DHT22;15212;48.830;8.730;2023-07-28T13:12:12;19.60;99.90
27848;DHT22;15212;48.830;8.730;2023-07-28T13:14:40;19.50;99.90
27848;DHT22;15212;48.830;8.730;2023-07-28T13:17:08;19.40;99.90
27848;DHT22;15212;48.830;8.730;2023-07-28T13:19:38;19.30;99.90
27848;DHT22;15212;48.830;8.730;2023-07-28T13:22:06;19.20;99.90
27848;DHT22;15212;48.830;8.730;2023-07-28T13:24:35;19.20;99.90
27848;DHT22;15212;48.830;8.730;2023-07-28T13:27:05;19.20;99.90
27848;DHT22;15212;48.830;8.730;2023-07-28T13:29:33;19.10;99.90
27848;DHT22;15212;48.830;8.730;2023-07-28T13:32:02;19.00;99.90
27848;DHT22;15212;48.830;8.730;2023-07-28T13:34:30;19.00;99.90
27848;DHT22;15212;48.830;8.730;2023-07-28T13:36:59;18.90;99.90
27848;DHT22;15212;48.830;8.730;2023-07-28T13:39:27;18.90;99.90
27848;DHT22;15212;48.830;8.730;2023-07-28T13:41:55;18.80;99.90
27848;DHT22;15212;48.830;8.730;2023-07-28T13:44:24;18.80;99.90
27848;DHT22;15212;48.830;8.730;2023-07-28T13:46:52;18.80;99.90
27848;DHT22;15212;48.830;8.730;2023-07-28T13:49:22;18.80;99.90
27848;DHT22;15212;48.830;8.730;2023-07-28T13:51:50;18.80;99.90
27848;DHT22;15212;48.830;8.730;2023-07-28T13:54:19;18.80;99.90
27848;DHT22;15212;48.830;8.730;2023-07-28T13:56:47;18.80;99.90
27848;DHT22;15212;48.830;8.730;2023-07-28T13:59:16;18.80;99.90
27848;DHT22;15212;48.830;8.730;2023-07-28T14:01:44;18.90;99.90
27848;DHT22;15212;48.830;8.730;2023-07-28T14:04:12;18.90;99.90
27848;DHT22;15212;48.830;8.730;2023-07-28T14:06:41;19.00;99.90
27848;DHT22;15212;48.830;8.730;2023-07-28T14:09:09;19.00;99.90
27848;DHT22;15212;48.830;8.730;2023-07-28T14:11:37;19.00;99.90
27848;DHT22;15212;48.830;8.730;2023-07-28T14:14:06;18.90;99.90
27848;DHT22;15212;48.830;8.730;2023-07-28T14:16:34;18.90;99.90
27848;DHT22;15212;48.830;8.730;2023-07-28T14:19:03;18.80;99.90
27848;DHT22;15212;48.830;8.730;2023-07-28T14:21:31;18.80;99.90
27848;DHT22;15212;48.830;8.730;2023-07-28T14:23:59;18.80;99.90
27848;DHT22;15212;48.830;8.730;2023-07-28T14:26:28;18.80;99.90
27848;DHT22;15212;48.830;8.730;2023-07-28T14:28:56;18.80;99.90
27848;DHT22;15212;48.830;8.730;2023-07-28T14:31:25;18.70;99.90
27848;DHT22;15212;48.830;8.730;2023-07-28T14:33:53;18.70;99.90
27848;DHT22;15212;48.830;8.730;2023-07-28T14:36:21;18.80;99.90
27848;DHT22;15212;48.830;8.730;2023-07-28T14:38:50;18.80;99.90
27848;DHT22;15212;48.830;8.730;2023-07-28T14:41:18;18.80;99.90
27848;DHT22;15212;48.830;8.730;2023-07-28T14:43:47;18.80;99.90
27848;DHT22;15212;48.830;8.730;2023-07-28T14:46:15;18.90;99.90
27848;DHT22;15212;48.830;8.730;2023-07-28T14:48:43;18.90;99.90
27848;DHT22;15212;48.830;8.730;2023-07-28T14:51:12;18.90;99.90
27848;DHT22;15212;48.830;8.730;2023-07-28T14:53:40;19.00;99.90
27848;DHT22;15212;48.830;8.730;2023-07-28T14:56:09;19.00;99.90
27848;DHT22;15212;48.830;8.730;2023-07-28T14:58:37;19.10;99.90
27848;DHT22;15212;48.830;8.730;2023-07-28T15:01:07;19.00;99.90
27848;DHT22;15212;48.830;8.730;2023-07-28T15:03:39;19.00;99.90
27848;DHT22;15212;48.830;8.730;2023-07-28T15:06:08;18.90;99.90
27848;DHT22;15212;48.830;8.730;2023-07-28T15:08:36;18.90;99.90
27848;DHT22;15212;48.830;8.730;2023-07-28T15:11:04;18.90;99.90
27848;DHT22;15212;48.830;8.730;2023-07-28T15:13:33;18.90;99.90
27848;DHT22;15212;48.830;8.730;2023-07-28T15:16:01;18.80;99.90
27848;DHT22;15212;48.830;8.730;2023-07-28T15:18:30;18.70;99.90
27848;DHT22;15212;48.830;8.730;2023-07-28T15:20:58;18.60;99.90
27848;DHT22;15212;48.830;8.730;2023-07-28T15:23:26;18.60;99.90
27848;DHT22;15212;48.830;8.730;2023-07-28T15:25:55;18.60;99.90
27848;DHT22;15212;48.830;8.730;2023-07-28T15:28:26;18.60;99.90
27848;DHT22;15212;48.830;8.730;2023-07-28T15:30:55;18.60;99.90
27848;DHT22;15212;48.830;8.730;2023-07-28T15:33:23;18.60;99.90
27848;DHT22;15212;48.830;8.730;2023-07-28T15:35:56;18.60;99.90
27848;DHT22;15212;48.830;8.730;2023-07-28T15:38:25;18.60;99.90
27848;DHT22;15212;48.830;8.730;2023-07-28T15:40:53;18.70;99.90
27848;DHT22;15212;48.830;8.730;2023-07-28T15:43:24;18.70;99.90
27848;DHT22;15212;48.830;8.730;2023-07-28T15:45:52;18.70;99.90
27848;DHT22;15212;48.830;8.730;2023-07-28T15:48:21;18.80;99.90
27848;DHT22;15212;48.830;8.730;2023-07-28T15:50:50;18.80;99.90
27848;DHT22;15212;48.830;8.730;2023-07-28T15:53:19;18.80;99.90
27848;DHT22;15212;48.830;8.730;2023-07-28T15:55:48;18.80;99.90
27848;DHT22;15212;48.830;8.730;2023-07-28T15:58:16;18.80;99.90